M.y. Libra Star — 3ALV — position and weather

sailwx.info

Track history (hours):
 
Tides and Currents Weather Stations Pressure Air Temp Water Temp Dewpoint Dewpoint Depression Visibility Wind Speed Wind Dir Waves Ship Positions

M.y. Libra Star

Last reported at 2015-Jul-05 13:31 UTC. Time now 2015-Jul-05 19:20 UTC.
Position N 43°44' E 007°26'.

Length 40 m; draft 3 m.

Type: Pleasure craft. MMSI: 254450000.

Date/timePositionNaut miles runAvg speedWind from/ knotsBaromVisibWave heightAir tempDewpointWater temp
2015-Jul-05 13:31N 43°44' E 007°26'4 0.1
2015-Jul-04 04:12N 43°41' E 007°21'1 0.2
2015-Jul-04 00:18N 43°42' E 007°20'0 0.0
2015-Jul-03 23:12N 43°42' E 007°20'0 0.0
2015-Jul-03 17:06N 43°42' E 007°20'0 0.0
2015-Jul-03 16:30N 43°42' E 007°20'0 0.0
2015-Jul-03 11:30N 43°42' E 007°20'0 0.0
2015-Jul-03 10:30N 43°42' E 007°20'0 0.0
2015-Jul-03 09:24N 43°42' E 007°20'1 0.1
2015-Jul-02 23:27N 43°41' E 007°21'1213.6
2015-Jul-02 22:33N 43°33' E 007°09'1413.7
2015-Jul-02 21:33N 43°23' E 006°55'1413.8
2015-Jul-02 20:33N 43°14' E 006°41'1 1.2
2015-Jul-02 19:33N 43°14' E 006°40'0 0.0
2015-Jul-02 18:34N 43°14' E 006°40'0 0.0
2015-Jul-02 17:33N 43°14' E 006°40'0 0.0
2015-Jul-02 16:33N 43°13' E 006°40'0 0.0
2015-Jul-02 15:33N 43°14' E 006°40'0 0.0
2015-Jul-02 14:33N 43°14' E 006°40'0 0.0
2015-Jul-02 13:30N 43°14' E 006°40'0 0.0
2015-Jul-02 12:33N 43°14' E 006°40'0 0.0
2015-Jul-02 03:33N 43°14' E 006°40'0 0.0
2015-Jul-02 00:09N 43°14' E 006°40'0 0.0
2015-Jul-01 23:29N 43°14' E 006°40'0 0.0
2015-Jul-01 22:32N 43°14' E 006°40'0 0.0
2015-Jul-01 21:32N 43°14' E 006°40'0 0.0
2015-Jul-01 20:21N 43°14' E 006°40'0 0.0
2015-Jul-01 19:33N 43°14' E 006°40'23 1.1
2015-Jun-30 22:17N 43°01' E 006°14'3 3.7
2015-Jun-30 21:23N 43°01' E 006°18'1310.0
2015-Jun-30 20:05N 43°06' E 006°35'16 0.5
2015-Jun-29 12:14N 43°20' E 006°48'1514.1
2015-Jun-29 11:11N 43°30' E 007°03'4 5.3
2015-Jun-29 10:23N 43°33' E 007°07'0 0.0
2015-Jun-29 09:29N 43°33' E 007°07'0 2.0
2015-Jun-29 09:23N 43°33' E 007°07'0 0.2
2015-Jun-29 08:29N 43°33' E 007°07'0 0.0
2015-Jun-29 07:29N 43°33' E 007°07'0 0.0
2015-Jun-29 06:29N 43°33' E 007°07'0 0.0
2015-Jun-29 05:17N 43°33' E 007°07'0 0.0
2015-Jun-29 04:05N 43°33' E 007°07'0 0.0
2015-Jun-29 03:29N 43°33' E 007°07'0 0.0
2015-Jun-29 02:29N 43°33' E 007°07'0 0.0
2015-Jun-29 01:29N 43°33' E 007°07'0 0.0
2015-Jun-29 00:29N 43°33' E 007°07'0 0.0
2015-Jun-28 23:33N 43°33' E 007°07'1010.1
2015-Jun-28 22:33N 43°39' E 007°18'3 0.5
2015-Jun-28 15:16N 43°42' E 007°21'0 0.0
2015-Jun-28 14:28N 43°42' E 007°21'0 0.0
2015-Jun-28 13:16N 43°42' E 007°21'0 0.0
2015-Jun-28 12:28N 43°42' E 007°21'0 0.0
2015-Jun-28 11:28N 43°42' E 007°21'0 0.0
2015-Jun-28 10:28N 43°42' E 007°21'0 0.0
2015-Jun-28 09:28N 43°42' E 007°21'6 0.4
2015-Jun-27 19:15N 43°45' E 007°27'0 0.0
2015-Jun-27 18:33N 43°45' E 007°27'0 0.0
2015-Jun-27 17:30N 43°45' E 007°27'0 0.0
2015-Jun-27 16:32N 43°45' E 007°27'0 0.0
2015-Jun-27 15:33N 43°45' E 007°27'0 0.0
2015-Jun-27 14:33N 43°45' E 007°27'0 0.0
2015-Jun-27 13:32N 43°45' E 007°27'0 0.0
2015-Jun-27 12:33N 43°45' E 007°27'0 0.0
2015-Jun-27 10:10N 43°45' E 007°27'1 0.4
2015-Jun-27 07:33N 43°44' E 007°26'0 0.0
2015-Jun-26 17:18N 43°44' E 007°26'0 0.0
2015-Jun-25 16:06N 43°44' E 007°26'  
Track history (hours):
 
Tides and Currents Weather Stations Pressure Air Temp Water Temp Dewpoint Dewpoint Depression Visibility Wind Speed Wind Dir Waves Ship Positions

M.y. Libra Star

Last reported at 2015-Jul-05 13:31 UTC. Time now 2015-Jul-05 19:20 UTC.
Position N 43°44' E 007°26'.

Length 40 m; draft 3 m.

Type: Pleasure craft. MMSI: 254450000.

Date/timePositionNaut miles runAvg speedWind from/ knotsBaromVisibWave heightAir tempDewpointWater temp
2015-Jul-05 13:31N 43°44' E 007°26'4 0.1
2015-Jul-04 04:12N 43°41' E 007°21'1 0.2
2015-Jul-04 00:18N 43°42' E 007°20'0 0.0
2015-Jul-03 23:12N 43°42' E 007°20'0 0.0
2015-Jul-03 17:06N 43°42' E 007°20'0 0.0
2015-Jul-03 16:30N 43°42' E 007°20'0 0.0
2015-Jul-03 11:30N 43°42' E 007°20'0 0.0
2015-Jul-03 10:30N 43°42' E 007°20'0 0.0
2015-Jul-03 09:24N 43°42' E 007°20'1 0.1
2015-Jul-02 23:27N 43°41' E 007°21'1213.6
2015-Jul-02 22:33N 43°33' E 007°09'1413.7
2015-Jul-02 21:33N 43°23' E 006°55'1413.8
2015-Jul-02 20:33N 43°14' E 006°41'1 1.2
2015-Jul-02 19:33N 43°14' E 006°40'0 0.0
2015-Jul-02 18:34N 43°14' E 006°40'0 0.0
2015-Jul-02 17:33N 43°14' E 006°40'0 0.0
2015-Jul-02 16:33N 43°13' E 006°40'0 0.0
2015-Jul-02 15:33N 43°14' E 006°40'0 0.0
2015-Jul-02 14:33N 43°14' E 006°40'0 0.0
2015-Jul-02 13:30N 43°14' E 006°40'0 0.0
2015-Jul-02 12:33N 43°14' E 006°40'0 0.0
2015-Jul-02 03:33N 43°14' E 006°40'0 0.0
2015-Jul-02 00:09N 43°14' E 006°40'0 0.0
2015-Jul-01 23:29N 43°14' E 006°40'0 0.0
2015-Jul-01 22:32N 43°14' E 006°40'0 0.0
2015-Jul-01 21:32N 43°14' E 006°40'0 0.0
2015-Jul-01 20:21N 43°14' E 006°40'0 0.0
2015-Jul-01 19:33N 43°14' E 006°40'23 1.1
2015-Jun-30 22:17N 43°01' E 006°14'3 3.7
2015-Jun-30 21:23N 43°01' E 006°18'1310.0
2015-Jun-30 20:05N 43°06' E 006°35'16 0.5
2015-Jun-29 12:14N 43°20' E 006°48'1514.1
2015-Jun-29 11:11N 43°30' E 007°03'4 5.3
2015-Jun-29 10:23N 43°33' E 007°07'0 0.0
2015-Jun-29 09:29N 43°33' E 007°07'0 2.0
2015-Jun-29 09:23N 43°33' E 007°07'0 0.2
2015-Jun-29 08:29N 43°33' E 007°07'0 0.0
2015-Jun-29 07:29N 43°33' E 007°07'0 0.0
2015-Jun-29 06:29N 43°33' E 007°07'0 0.0
2015-Jun-29 05:17N 43°33' E 007°07'0 0.0
2015-Jun-29 04:05N 43°33' E 007°07'0 0.0
2015-Jun-29 03:29N 43°33' E 007°07'0 0.0
2015-Jun-29 02:29N 43°33' E 007°07'0 0.0
2015-Jun-29 01:29N 43°33' E 007°07'0 0.0
2015-Jun-29 00:29N 43°33' E 007°07'0 0.0
2015-Jun-28 23:33N 43°33' E 007°07'1010.1
2015-Jun-28 22:33N 43°39' E 007°18'3 0.5
2015-Jun-28 15:16N 43°42' E 007°21'0 0.0
2015-Jun-28 14:28N 43°42' E 007°21'0 0.0
2015-Jun-28 13:16N 43°42' E 007°21'0 0.0
2015-Jun-28 12:28N 43°42' E 007°21'0 0.0
2015-Jun-28 11:28N 43°42' E 007°21'0 0.0
2015-Jun-28 10:28N 43°42' E 007°21'0 0.0
2015-Jun-28 09:28N 43°42' E 007°21'6 0.4
2015-Jun-27 19:15N 43°45' E 007°27'0 0.0
2015-Jun-27 18:33N 43°45' E 007°27'0 0.0
2015-Jun-27 17:30N 43°45' E 007°27'0 0.0
2015-Jun-27 16:32N 43°45' E 007°27'0 0.0
2015-Jun-27 15:33N 43°45' E 007°27'0 0.0
2015-Jun-27 14:33N 43°45' E 007°27'0 0.0
2015-Jun-27 13:32N 43°45' E 007°27'0 0.0
2015-Jun-27 12:33N 43°45' E 007°27'0 0.0
2015-Jun-27 10:10N 43°45' E 007°27'1 0.4
2015-Jun-27 07:33N 43°44' E 007°26'0 0.0
2015-Jun-26 17:18N 43°44' E 007°26'0 0.0
2015-Jun-25 16:06N 43°44' E 007°26'  

Dump ship's entire track history